Time;durP1;ratioP1;P1;durP2;ratioP2;P2;SDS_P1;SDS_P2;PMS_P1;PMS_P2;Temp;Humidity;BMP_temperature;BMP_pressure;BME280_temperature;BME280_humidity;BME280_pressure;Samples;Min_cycle;Max_cycle;Signal;HPM_P1;HPM_P2
2023/05/05 00:00:20;;;;;;;6.85;5.18;;;;;;;9.02;79.70;95157.84;5055955;28;20465;-75
2023/05/05 00:02:46;;;;;;;7.80;5.72;;;;;;;8.98;79.84;95152.06;5054406;28;20051;-75
2023/05/05 00:05:12;;;;;;;8.32;5.72;;;;;;;8.93;79.73;95139.44;5081346;28;20032;-75
2023/05/05 00:07:37;;;;;;;7.28;5.30;;;;;;;8.99;79.74;95135.56;5074431;28;20047;-75
2023/05/05 00:10:03;;;;;;;8.35;5.28;;;;;;;8.98;79.92;95140.88;5081511;28;20478;-75
2023/05/05 00:12:29;;;;;;;7.72;5.85;;;;;;;8.81;80.01;95126.53;5077702;28;20041;-75
2023/05/05 00:14:54;;;;;;;7.60;5.60;;;;;;;9.00;79.96;95147.63;5075597;28;20083;-75
2023/05/05 00:17:20;;;;;;;7.43;5.97;;;;;;;8.88;80.15;95136.34;5065783;28;20063;-75
2023/05/05 00:19:45;;;;;;;7.35;5.68;;;;;;;8.94;80.54;95125.56;5081422;28;20129;-75
2023/05/05 00:22:11;;;;;;;6.50;5.10;;;;;;;9.08;80.20;95142.72;5066121;28;20471;-76
2023/05/05 00:24:36;;;;;;;7.18;5.25;;;;;;;8.90;79.39;95131.88;5065460;28;20564;-76
2023/05/05 00:27:02;;;;;;;7.00;5.38;;;;;;;9.00;79.10;95129.47;5099924;28;20040;-76
2023/05/05 00:29:28;;;;;;;8.45;5.40;;;;;;;9.06;78.43;95134.22;5070045;28;20041;-76
2023/05/05 00:31:53;;;;;;;8.55;6.05;;;;;;;8.96;79.07;95135.78;5060229;28;20028;-76
2023/05/05 00:34:19;;;;;;;7.63;5.57;;;;;;;9.07;78.93;95145.41;5067716;28;20028;-76
2023/05/05 00:36:44;;;;;;;8.25;5.10;;;;;;;9.07;79.05;95143.63;5073594;28;20106;-75
2023/05/05 00:39:10;;;;;;;7.35;5.35;;;;;;;9.00;78.90;95144.16;5071531;28;20032;-76
2023/05/05 00:41:35;;;;;;;9.25;5.38;;;;;;;8.82;79.14;95146.31;5074118;28;20040;-75
2023/05/05 00:44:01;;;;;;;8.55;5.13;;;;;;;8.66;79.25;95131.88;5082308;28;20035;-76
2023/05/05 00:46:28;;;;;;;9.38;5.50;;;;;;;8.60;78.93;95140.03;5091051;28;20329;-76
2023/05/05 00:48:53;;;;;;;9.88;5.68;;;;;;;8.42;79.67;95146.50;5077594;28;20031;-75
2023/05/05 00:51:19;;;;;;;7.85;5.70;;;;;;;8.42;79.72;95149.94;5057932;28;20032;-76
2023/05/05 00:53:45;;;;;;;7.78;5.55;;;;;;;8.36;79.79;95152.06;5079772;28;20024;-75
2023/05/05 00:56:11;;;;;;;10.52;6.88;;;;;;;8.27;79.68;95138.00;5084112;28;20397;-75
2023/05/05 00:58:37;;;;;;;9.90;6.30;;;;;;;8.27;79.09;95144.03;5072574;28;20087;-76
2023/05/05 01:01:02;;;;;;;7.88;6.13;;;;;;;8.32;78.75;95148.88;5073241;28;20033;-76
2023/05/05 01:03:28;;;;;;;7.40;5.82;;;;;;;8.28;78.56;95139.66;5078682;28;20066;-75
2023/05/05 01:06:01;;;;;;;15.00;6.07;;;;;;;7.96;79.29;95131.50;5082076;28;20031;-75
2023/05/05 01:08:50;;;;;;;9.20;7.20;;;;;;;8.10;78.58;95151.25;5090156;28;20028;-75
2023/05/05 01:11:26;;;;;;;10.15;6.97;;;;;;;8.03;78.30;95153.44;5071781;28;20132;-76
2023/05/05 01:13:57;;;;;;;8.95;7.72;;;;;;;7.92;78.64;95156.75;5074165;28;20080;-75
2023/05/05 01:16:27;;;;;;;9.73;7.97;;;;;;;7.55;79.31;95142.81;5074898;28;20101;-75
2023/05/05 01:18:55;;;;;;;7.03;5.75;;;;;;;7.69;79.50;95144.50;5058788;28;20465;-76
2023/05/05 01:21:30;;;;;;;7.60;5.30;;;;;;;7.68;78.62;95141.09;5072704;28;20507;-75
2023/05/05 01:24:34;;;;;;;7.45;5.40;;;;;;;7.56;79.31;95132.38;5087296;28;20032;-76
2023/05/05 01:27:18;;;;;;;8.30;5.15;;;;;;;7.63;79.00;95143.16;5085499;28;20029;-76
2023/05/05 01:29:54;;;;;;;9.75;4.60;;;;;;;7.42;79.67;95139.41;5068528;28;20044;-76
2023/05/05 01:32:21;;;;;;;9.00;4.85;;;;;;;7.44;80.04;95129.78;5075435;28;20036;-76
2023/05/05 01:34:51;;;;;;;8.27;4.75;;;;;;;7.33;80.67;95127.91;5076862;28;20105;-75
2023/05/05 01:37:20;;;;;;;8.45;5.20;;;;;;;7.22;80.88;95127.78;5081008;28;20032;-75
2023/05/05 01:39:46;;;;;;;6.65;5.15;;;;;;;7.28;80.53;95119.63;5070894;28;20092;-75
2023/05/05 01:42:14;;;;;;;7.30;5.10;;;;;;;7.37;80.53;95129.34;5078192;28;20410;-76
2023/05/05 01:44:43;;;;;;;8.35;4.90;;;;;;;7.23;80.29;95119.09;5075383;28;20093;-75
2023/05/05 01:47:13;;;;;;;7.15;4.85;;;;;;;7.25;80.82;95125.00;5054934;28;20082;-75
2023/05/05 01:49:39;;;;;;;7.57;5.43;;;;;;;7.23;81.67;95130.25;5060758;28;20401;-75
2023/05/05 01:52:05;;;;;;;7.38;5.22;;;;;;;7.30;81.64;95120.31;5075837;28;20039;-75
2023/05/05 01:54:31;;;;;;;9.50;5.90;;;;;;;7.27;82.13;95118.81;5058706;28;20028;-75
2023/05/05 01:56:56;;;;;;;8.48;4.97;;;;;;;7.29;82.21;95124.69;5081103;28;20114;-76
2023/05/05 01:59:22;;;;;;;7.63;5.63;;;;;;;7.38;81.75;95120.66;5065883;28;20090;-75
2023/05/05 02:01:47;;;;;;;10.60;5.90;;;;;;;7.35;82.10;95118.28;5072632;28;20067;-75
2023/05/05 02:04:13;;;;;;;10.52;5.97;;;;;;;7.49;81.69;95105.28;5071257;28;20076;-76
2023/05/05 02:06:39;;;;;;;9.82;5.57;;;;;;;7.60;81.81;95112.31;5030460;28;20160;-75
2023/05/05 02:09:04;;;;;;;9.45;5.97;;;;;;;7.67;82.15;95115.34;5029797;28;20128;-75
2023/05/05 02:11:30;;;;;;;9.73;6.78;;;;;;;7.65;82.18;95117.19;5047432;28;20037;-76
2023/05/05 02:13:55;;;;;;;9.15;6.70;;;;;;;7.75;82.62;95118.25;5028602;28;20525;-75
2023/05/05 02:16:21;;;;;;;10.52;7.50;;;;;;;7.67;82.63;95115.34;5045694;28;20395;-75
2023/05/05 02:18:46;;;;;;;8.88;6.60;;;;;;;7.70;82.71;95112.56;5061109;28;20406;-76
2023/05/05 02:21:13;;;;;;;9.05;6.18;;;;;;;7.80;82.78;95121.34;5013113;28;20033;-76
2023/05/05 02:23:39;;;;;;;9.02;6.72;;;;;;;7.74;83.36;95121.75;5044954;28;20029;-75
2023/05/05 02:26:08;;;;;;;8.32;5.45;;;;;;;7.92;82.05;95109.34;5029370;28;20558;-75
2023/05/05 02:29:12;;;;;;;9.38;5.50;;;;;;;7.91;83.22;95124.06;5028832;28;20406;-75
2023/05/05 02:31:41;;;;;;;7.95;5.68;;;;;;;8.01;82.99;95124.25;5011898;28;20476;-76
2023/05/05 02:34:06;;;;;;;9.00;5.88;;;;;;;7.98;82.65;95125.28;5028187;28;20033;-75
2023/05/05 02:36:32;;;;;;;9.80;6.00;;;;;;;8.14;82.21;95125.09;5029596;28;20056;-76
2023/05/05 02:39:02;;;;;;;8.00;5.40;;;;;;;8.20;82.59;95121.25;5046217;28;20017;-75
2023/05/05 02:41:28;;;;;;;6.50;5.00;;;;;;;8.22;82.62;95119.38;5029977;28;20041;-75
2023/05/05 02:43:53;;;;;;;8.32;5.78;;;;;;;8.33;81.79;95114.31;5043849;28;20020;-75
2023/05/05 02:46:19;;;;;;;6.82;5.00;;;;;;;8.28;82.10;95116.38;5031636;28;20037;-75
2023/05/05 02:48:45;;;;;;;8.85;6.10;;;;;;;8.13;82.87;95107.06;5029555;28;20025;-76
2023/05/05 02:51:10;;;;;;;8.65;5.13;;;;;;;8.33;82.07;95119.47;5040200;28;20496;-75
2023/05/05 02:53:35;;;;;;;7.80;5.13;;;;;;;8.19;82.69;95104.03;5046248;28;20024;-76
2023/05/05 02:56:17;;;;;;;8.20;5.70;;;;;;;8.11;82.08;95094.25;5024000;28;20029;-75
2023/05/05 02:59:08;;;;;;;7.30;5.35;;;;;;;8.25;81.83;95103.66;5030749;28;20029;-75
2023/05/05 03:01:36;;;;;;;7.30;5.60;;;;;;;8.39;81.83;95118.25;5031565;28;20045;-75
2023/05/05 03:04:05;;;;;;;7.13;5.32;;;;;;;8.49;82.07;95104.53;5074215;28;20078;-75
2023/05/05 03:06:31;;;;;;;8.85;5.40;;;;;;;8.48;81.78;95109.84;5066708;28;20945;-75
2023/05/05 03:09:06;;;;;;;6.55;4.78;;;;;;;8.56;80.91;95104.13;5078926;28;20040;-76
2023/05/05 03:11:35;;;;;;;6.82;5.18;;;;;;;8.50;80.88;95106.22;5070433;28;20040;-75
2023/05/05 03:14:18;;;;;;;7.82;5.45;;;;;;;8.66;81.04;95105.13;5065033;28;20040;-75
2023/05/05 03:16:44;;;;;;;13.60;8.50;;;;;;;8.55;81.46;95111.03;5066402;28;20560;-75
2023/05/05 03:19:11;;;;;;;13.80;7.70;;;;;;;8.60;81.22;95106.38;5041159;28;20118;-75
2023/05/05 03:21:36;;;;;;;33.05;18.70;;;;;;;8.56;80.68;95093.78;5068792;28;20039;-75
2023/05/05 03:24:18;;;;;;;18.48;10.98;;;;;;;8.43;80.65;95089.44;5061491;28;20023;-75
2023/05/05 03:26:44;;;;;;;15.73;9.32;;;;;;;8.60;80.28;95106.38;5092204;28;20040;-75
2023/05/05 03:29:10;;;;;;;15.23;11.68;;;;;;;8.45;79.51;95110.06;5100886;28;20021;-76
2023/05/05 03:31:36;;;;;;;19.30;13.00;;;;;;;8.58;79.87;95097.06;5071859;28;20028;-75
2023/05/05 03:34:01;;;;;;;15.85;10.95;;;;;;;8.64;78.06;95107.00;5063461;28;20032;-76
2023/05/05 03:36:27;;;;;;;15.30;9.55;;;;;;;8.57;79.00;95104.00;5081026;28;20290;-76
2023/05/05 03:38:52;;;;;;;19.27;11.88;;;;;;;8.55;80.28;95107.63;5082862;28;20012;-75
2023/05/05 03:41:19;;;;;;;11.85;8.07;;;;;;;8.64;80.98;95112.19;5086890;28;20036;-76
2023/05/05 03:43:45;;;;;;;9.63;6.07;;;;;;;8.67;79.97;95101.63;5082995;28;20069;-76
2023/05/05 03:46:10;;;;;;;9.02;6.32;;;;;;;8.72;79.69;95109.88;5097158;28;20039;-75
2023/05/05 03:48:36;;;;;;;9.60;6.03;;;;;;;8.75;80.00;95098.44;5100432;28;20032;-76
2023/05/05 03:51:01;;;;;;;17.63;9.95;;;;;;;8.89;79.12;95106.09;5068813;28;20020;-75
2023/05/05 03:53:27;;;;;;;17.00;9.10;;;;;;;8.79;80.85;95112.84;5081988;28;20028;-75
2023/05/05 03:55:52;;;;;;;13.57;7.78;;;;;;;8.79;80.88;95113.69;5080550;28;20163;-76
2023/05/05 03:58:17;;;;;;;11.70;7.80;;;;;;;8.64;80.57;95101.84;5088674;28;20036;-75
2023/05/05 04:00:43;;;;;;;14.55;8.68;;;;;;;8.75;80.84;95114.84;5079863;28;20032;-76
2023/05/05 04:03:09;;;;;;;30.45;15.68;;;;;;;8.81;79.70;95117.00;5087137;28;20441;-75
2023/05/05 04:05:35;;;;;;;16.55;8.73;;;;;;;8.87;79.87;95118.31;5072477;28;20043;-75
2023/05/05 04:08:02;;;;;;;9.15;5.90;;;;;;;8.88;80.28;95115.59;5066758;28;20477;-75
2023/05/05 04:10:27;;;;;;;7.85;4.95;;;;;;;8.91;80.09;95110.22;5084417;28;20040;-76
2023/05/05 04:12:53;;;;;;;8.10;4.82;;;;;;;9.04;80.10;95120.53;5100555;28;20043;-75
2023/05/05 04:15:18;;;;;;;6.78;4.15;;;;;;;8.91;78.83;95112.81;5086171;28;20089;-75
2023/05/05 04:17:44;;;;;;;5.80;4.13;;;;;;;8.99;79.11;95116.63;5086162;28;20093;-75
2023/05/05 04:20:10;;;;;;;7.18;4.60;;;;;;;9.05;79.41;95098.84;5086678;28;20048;-75
2023/05/05 04:22:35;;;;;;;6.47;3.85;;;;;;;9.21;78.73;95116.72;5099133;28;20028;-75
2023/05/05 04:25:01;;;;;;;5.75;4.20;;;;;;;8.99;78.97;95075.97;5077907;28;20032;-76
2023/05/05 04:27:28;;;;;;;7.18;3.80;;;;;;;9.31;77.78;95122.91;5078526;28;20398;-75
2023/05/05 04:29:54;;;;;;;6.40;3.55;;;;;;;9.36;78.46;95119.94;5055136;28;20166;-76
2023/05/05 04:32:19;;;;;;;5.28;3.83;;;;;;;9.44;78.96;95127.19;5065533;28;20036;-76
2023/05/05 04:34:45;;;;;;;5.53;4.10;;;;;;;9.49;78.47;95131.09;5082835;28;20062;-75
2023/05/05 04:37:11;;;;;;;6.25;3.80;;;;;;;9.46;78.17;95125.31;5072871;28;20395;-75
2023/05/05 04:39:36;;;;;;;6.53;3.65;;;;;;;9.52;77.76;95140.41;5098641;28;20024;-75
2023/05/05 04:42:02;;;;;;;4.53;3.85;;;;;;;9.62;77.09;95138.81;5069697;28;20032;-75
2023/05/05 04:44:27;;;;;;;9.63;5.50;;;;;;;9.65;75.98;95132.56;5086031;28;20086;-76
2023/05/05 04:46:54;;;;;;;7.50;5.25;;;;;;;9.70;75.76;95148.63;5089871;28;20479;-75
2023/05/05 04:49:19;;;;;;;6.30;4.97;;;;;;;9.70;75.59;95144.25;5085326;28;20032;-76
2023/05/05 04:51:45;;;;;;;7.65;5.40;;;;;;;9.76;75.33;95140.38;5089765;28;20040;-75
2023/05/05 04:54:11;;;;;;;6.55;4.82;;;;;;;9.83;75.56;95150.19;5083413;28;20055;-75
2023/05/05 04:56:36;;;;;;;6.07;4.68;;;;;;;9.87;75.20;95143.00;5069866;28;20036;-75
2023/05/05 04:59:01;;;;;;;7.60;5.15;;;;;;;9.85;74.65;95150.06;5050709;28;20027;-76
2023/05/05 05:01:27;;;;;;;7.95;5.78;;;;;;;9.87;74.01;95142.19;5065205;28;20048;-77
2023/05/05 05:03:52;;;;;;;16.50;7.35;;;;;;;9.92;72.26;95142.63;5076887;28;20052;-75
2023/05/05 05:06:18;;;;;;;7.55;5.40;;;;;;;10.09;72.08;95155.19;5081357;28;20055;-75
2023/05/05 05:08:43;;;;;;;7.53;5.15;;;;;;;10.04;72.34;95157.31;5066385;28;20410;-75
2023/05/05 05:11:09;;;;;;;10.73;5.85;;;;;;;9.97;73.16;95156.94;5061379;28;20036;-75
2023/05/05 05:13:34;;;;;;;8.93;5.93;;;;;;;10.00;73.21;95159.31;5073648;28;20020;-75
2023/05/05 05:16:00;;;;;;;8.00;5.70;;;;;;;10.03;73.89;95166.03;5085034;28;20029;-75
2023/05/05 05:18:25;;;;;;;6.88;5.25;;;;;;;10.12;72.97;95144.56;5035355;28;20028;-75
2023/05/05 05:20:51;;;;;;;7.05;5.20;;;;;;;10.24;72.21;95167.00;5035777;28;20024;-76
2023/05/05 05:23:16;;;;;;;7.13;5.53;;;;;;;10.16;72.26;95152.94;5055647;28;20020;-76
2023/05/05 05:25:42;;;;;;;8.73;6.10;;;;;;;10.29;71.93;95157.13;5048835;28;20506;-75
2023/05/05 05:28:07;;;;;;;7.60;5.88;;;;;;;10.18;71.67;95125.94;5052753;28;20028;-75
2023/05/05 05:30:33;;;;;;;9.00;6.35;;;;;;;10.49;70.64;95162.56;5052520;28;20017;-75
2023/05/05 05:32:58;;;;;;;8.48;6.80;;;;;;;10.38;70.90;95155.59;5071144;28;20040;-75
2023/05/05 05:35:24;;;;;;;8.55;6.22;;;;;;;10.49;71.09;95154.78;5056884;28;20093;-74
2023/05/05 05:37:50;;;;;;;7.07;5.70;;;;;;;10.46;70.42;95142.84;5089569;28;20040;-76
2023/05/05 05:40:16;;;;;;;9.25;5.90;;;;;;;10.66;70.00;95162.06;5080006;28;20400;-75
2023/05/05 05:42:41;;;;;;;9.18;5.95;;;;;;;10.77;69.78;95166.44;5053349;28;20093;-74
2023/05/05 05:45:07;;;;;;;6.75;4.70;;;;;;;10.80;69.54;95165.38;5037566;28;20028;-75
2023/05/05 05:47:33;;;;;;;9.55;5.85;;;;;;;10.89;69.40;95167.25;5060148;28;20101;-76
2023/05/05 05:49:59;;;;;;;4.88;4.07;;;;;;;11.03;68.44;95160.97;5073081;28;20016;-75
2023/05/05 05:52:24;;;;;;;6.65;4.55;;;;;;;11.14;68.68;95160.94;5078079;28;20039;-74
2023/05/05 05:54:50;;;;;;;6.50;4.65;;;;;;;11.21;68.16;95166.50;5077017;28;20374;-75
2023/05/05 05:57:15;;;;;;;5.20;4.03;;;;;;;11.41;67.47;95157.91;5088156;28;20039;-75
2023/05/05 05:59:41;;;;;;;4.35;3.47;;;;;;;11.44;66.51;95165.47;5087862;28;20039;-75
2023/05/05 06:02:06;;;;;;;5.85;3.55;;;;;;;11.49;66.86;95159.91;5092735;28;20039;-75
2023/05/05 06:04:32;;;;;;;5.57;3.28;;;;;;;11.50;66.35;95169.34;5070205;28;20047;-75
2023/05/05 06:06:57;;;;;;;4.05;2.58;;;;;;;11.54;64.99;95158.59;5055530;28;20042;-75
2023/05/05 06:09:23;;;;;;;4.93;2.80;;;;;;;11.68;65.16;95170.47;5087457;28;20024;-75
2023/05/05 06:11:49;;;;;;;3.92;2.60;;;;;;;11.63;63.64;95165.63;5051129;28;20028;-76
2023/05/05 06:14:15;;;;;;;4.38;2.78;;;;;;;11.77;63.13;95172.31;5029726;28;20081;-74
2023/05/05 06:16:41;;;;;;;6.15;3.20;;;;;;;11.82;63.02;95171.94;5061394;28;20025;-78
2023/05/05 06:19:09;;;;;;;4.03;2.90;;;;;;;11.81;63.69;95162.47;5052119;28;20028;-76
2023/05/05 06:21:38;;;;;;;4.72;2.88;;;;;;;11.94;63.61;95173.56;5037172;28;20033;-76
2023/05/05 06:24:03;;;;;;;5.95;2.80;;;;;;;11.89;63.65;95175.72;5089330;28;20035;-75
2023/05/05 06:26:30;;;;;;;4.45;3.10;;;;;;;11.88;63.42;95163.66;5073398;28;20050;-75
2023/05/05 06:28:55;;;;;;;6.15;2.92;;;;;;;11.94;63.41;95177.94;5081091;28;20040;-75
2023/05/05 06:31:21;;;;;;;6.75;2.97;;;;;;;12.08;63.11;95181.06;5059891;28;20426;-75
2023/05/05 06:33:47;;;;;;;4.82;3.05;;;;;;;12.15;62.37;95183.16;5052423;28;20051;-75
2023/05/05 06:36:12;;;;;;;5.80;3.17;;;;;;;12.14;63.07;95177.13;5072141;28;20093;-75
2023/05/05 06:38:37;;;;;;;5.35;3.72;;;;;;;12.16;62.18;95177.81;5072242;28;20029;-75
2023/05/05 06:41:03;;;;;;;5.30;3.17;;;;;;;12.07;62.85;95161.19;5090632;28;20032;-76
2023/05/05 06:43:29;;;;;;;4.70;3.30;;;;;;;12.26;62.28;95183.09;5088047;28;20085;-75
2023/05/05 06:45:54;;;;;;;3.97;2.95;;;;;;;12.12;61.60;95165.16;5076952;28;20552;-79
2023/05/05 06:48:20;;;;;;;4.72;3.00;;;;;;;12.32;61.97;95176.56;5082996;28;20046;-75
2023/05/05 06:50:45;;;;;;;82.72;31.20;;;;;;;12.41;61.13;95187.00;5038894;28;20119;-75
2023/05/05 06:53:10;;;;;;;17.48;8.55;;;;;;;12.40;61.20;95182.75;5091397;28;20028;-75
2023/05/05 06:55:36;;;;;;;6.03;2.80;;;;;;;12.43;60.37;95173.88;5091134;28;20020;-76
2023/05/05 06:58:01;;;;;;;4.40;2.90;;;;;;;12.50;59.93;95180.19;5070038;28;20480;-73
2023/05/05 07:00:27;;;;;;;4.40;2.90;;;;;;;12.47;60.25;95170.84;5056786;28;20035;-75
2023/05/05 07:02:52;;;;;;;5.68;2.90;;;;;;;12.62;60.89;95173.09;5062084;28;20136;-76
2023/05/05 07:05:18;;;;;;;4.15;2.17;;;;;;;12.58;59.80;95176.94;5095952;28;20536;-74
2023/05/05 07:07:51;;;;;;;3.13;2.17;;;;;;;12.58;59.68;95177.75;5078120;28;20032;-73
2023/05/05 07:10:17;;;;;;;3.65;2.47;;;;;;;12.64;59.58;95173.81;5067341;28;20035;-75
2023/05/05 07:12:42;;;;;;;3.85;2.40;;;;;;;12.74;58.94;95172.09;5054066;28;20047;-74
2023/05/05 07:15:08;;;;;;;3.10;2.05;;;;;;;12.79;59.19;95167.31;5051730;28;20031;-74
2023/05/05 07:17:33;;;;;;;3.92;2.22;;;;;;;12.73;59.16;95142.59;5079686;28;20031;-75
2023/05/05 07:19:59;;;;;;;4.75;2.85;;;;;;;12.94;59.31;95163.34;5041943;28;20291;-73
2023/05/05 07:22:24;;;;;;;3.10;2.00;;;;;;;12.95;59.20;95165.03;5070962;28;20410;-72
2023/05/05 07:24:52;;;;;;;3.00;2.10;;;;;;;13.03;58.55;95166.94;5077368;28;20420;-72
2023/05/05 07:27:18;;;;;;;3.30;2.10;;;;;;;13.21;57.91;95171.53;5073137;28;20039;-72
2023/05/05 07:29:43;;;;;;;6.90;2.63;;;;;;;13.03;57.60;95130.44;5063068;28;20028;-73
2023/05/05 07:32:09;;;;;;;4.32;2.67;;;;;;;13.28;57.92;95165.66;5072632;28;20556;-72
2023/05/05 07:34:36;;;;;;;4.03;2.47;;;;;;;13.36;58.05;95152.75;5069797;28;20032;-73
2023/05/05 07:37:02;;;;;;;3.42;2.28;;;;;;;13.45;57.26;95163.34;5053584;28;20032;-72
2023/05/05 07:39:28;;;;;;;3.10;2.50;;;;;;;13.56;57.88;95163.22;5079757;28;20025;-73
2023/05/05 07:41:53;;;;;;;4.05;2.85;;;;;;;13.78;56.80;95162.94;5049062;28;20406;-72
2023/05/05 07:44:19;;;;;;;6.88;3.25;;;;;;;13.64;57.59;95132.84;5072549;28;20036;-73
2023/05/05 07:46:44;;;;;;;3.83;2.67;;;;;;;13.99;57.29;95156.75;5053776;28;20093;-73
2023/05/05 07:49:10;;;;;;;5.03;2.67;;;;;;;14.22;56.14;95160.69;5084776;28;20028;-75
2023/05/05 07:51:36;;;;;;;3.53;2.63;;;;;;;13.88;54.82;95157.72;5055818;28;20429;-74
2023/05/05 07:54:01;;;;;;;4.55;3.05;;;;;;;14.01;56.25;95139.13;5072760;28;20057;-74
2023/05/05 07:56:27;;;;;;;5.35;2.80;;;;;;;14.17;55.45;95156.84;5089691;28;20494;-76
2023/05/05 07:58:53;;;;;;;3.38;2.50;;;;;;;14.16;54.90;95160.44;5090314;28;20451;-73
2023/05/05 08:01:18;;;;;;;3.70;2.70;;;;;;;14.05;53.41;95146.56;5075160;28;20035;-74
2023/05/05 08:03:44;;;;;;;3.58;2.30;;;;;;;14.14;54.61;95157.97;5070080;28;20102;-72
2023/05/05 08:06:09;;;;;;;3.35;2.30;;;;;;;14.47;52.96;95158.44;5070073;28;20402;-73
2023/05/05 08:08:35;;;;;;;3.58;2.58;;;;;;;14.46;52.41;95162.03;5070283;28;20409;-72
2023/05/05 08:11:05;;;;;;;3.10;2.28;;;;;;;14.58;53.58;95157.47;5084678;28;20034;-74
2023/05/05 08:13:30;;;;;;;4.28;2.40;;;;;;;14.75;53.03;95157.53;5076070;28;20028;-76
2023/05/05 08:15:56;;;;;;;4.45;2.50;;;;;;;14.74;52.46;95149.84;5088998;28;20039;-73
2023/05/05 08:18:21;;;;;;;4.88;2.42;;;;;;;14.91;52.85;95156.09;5083793;28;20039;-75
2023/05/05 08:20:47;;;;;;;3.58;2.50;;;;;;;15.19;53.36;95155.09;5065370;28;20024;-75
2023/05/05 08:23:12;;;;;;;5.10;2.90;;;;;;;15.24;51.54;95136.34;5074522;28;20429;-74
2023/05/05 08:25:37;;;;;;;6.63;2.58;;;;;;;15.12;50.92;95122.63;5068470;28;20047;-74
2023/05/05 08:28:03;;;;;;;4.90;2.63;;;;;;;15.51;50.86;95137.25;5074766;28;20040;-74
2023/05/05 08:30:28;;;;;;;4.47;2.97;;;;;;;15.70;49.99;95128.47;5092898;28;20028;-73
2023/05/05 08:32:54;;;;;;;5.20;2.80;;;;;;;15.66;49.15;95130.53;5075393;28;20036;-74
2023/05/05 08:35:20;;;;;;;3.65;2.30;;;;;;;15.80;48.22;95134.44;5057352;28;20028;-73
2023/05/05 08:37:45;;;;;;;5.15;2.83;;;;;;;15.82;48.49;95114.16;5069560;28;20037;-74
2023/05/05 08:40:13;;;;;;;4.15;2.85;;;;;;;15.80;48.94;95122.19;5060692;28;20028;-73
2023/05/05 08:42:39;;;;;;;5.85;3.35;;;;;;;16.09;49.44;95119.25;5090375;28;20115;-74
2023/05/05 08:45:05;;;;;;;4.35;2.97;;;;;;;16.26;49.39;95114.13;5083027;28;20089;-74
2023/05/05 08:47:31;;;;;;;5.40;3.10;;;;;;;16.45;48.79;95105.25;5058267;28;20508;-74
2023/05/05 08:49:56;;;;;;;6.18;2.88;;;;;;;16.67;48.33;95120.44;5063708;28;20028;-74
2023/05/05 08:52:22;;;;;;;3.30;2.33;;;;;;;16.71;46.40;95124.38;5048041;28;20024;-75
2023/05/05 08:54:56;;;;;;;4.70;3.05;;;;;;;16.85;48.25;95112.47;5069142;28;20036;-75
2023/05/05 08:57:29;;;;;;;4.57;2.95;;;;;;;17.03;46.52;95124.72;5068812;28;20032;-75
2023/05/05 08:59:56;;;;;;;6.10;2.50;;;;;;;16.87;45.92;95114.97;5069757;28;20510;-75
2023/05/05 09:02:27;;;;;;;4.30;3.10;;;;;;;16.94;47.43;95123.88;5067164;28;20127;-75
2023/05/05 09:04:52;;;;;;;5.38;2.53;;;;;;;17.04;47.02;95113.22;5072285;28;20028;-75
2023/05/05 09:07:18;;;;;;;3.80;2.60;;;;;;;17.17;46.17;95103.09;5069954;28;20654;-74
2023/05/05 09:09:43;;;;;;;4.60;2.58;;;;;;;17.24;47.15;95111.13;5087726;28;20728;-74
2023/05/05 09:12:08;;;;;;;3.70;2.60;;;;;;;17.28;45.58;95115.91;5084976;28;20710;-75
2023/05/05 09:14:34;;;;;;;4.07;2.35;;;;;;;17.18;45.91;95102.09;5068295;28;20531;-74
2023/05/05 09:17:01;;;;;;;4.13;2.40;;;;;;;17.32;46.19;95104.09;5055871;28;20531;-74
2023/05/05 09:19:27;;;;;;;3.35;2.30;;;;;;;17.52;45.89;95086.22;5056014;28;20028;-74
2023/05/05 09:21:53;;;;;;;4.20;2.22;;;;;;;17.68;46.32;95103.81;5069252;28;20491;-74
2023/05/05 09:24:19;;;;;;;3.30;2.33;;;;;;;17.83;45.67;95107.47;5070500;28;20078;-74
2023/05/05 09:26:45;;;;;;;3.25;2.40;;;;;;;17.81;45.30;95095.47;5053966;28;20036;-75
2023/05/05 09:29:18;;;;;;;4.05;2.40;;;;;;;17.86;45.53;95103.69;5065411;28;20028;-75
2023/05/05 09:31:44;;;;;;;4.03;2.47;;;;;;;17.70;44.47;95091.34;5055375;28;20036;-75
2023/05/05 09:34:15;;;;;;;3.33;2.20;;;;;;;17.75;44.55;95094.31;5071990;28;20048;-74
2023/05/05 09:36:46;;;;;;;4.15;2.22;;;;;;;17.65;44.87;95089.19;5053303;28;20047;-74
2023/05/05 09:39:13;;;;;;;4.97;3.00;;;;;;;17.62;46.18;95100.03;5084557;28;20036;-75
2023/05/05 09:41:39;;;;;;;4.57;3.10;;;;;;;17.49;46.49;95104.94;5068981;28;21172;-75
2023/05/05 09:44:05;;;;;;;4.22;2.92;;;;;;;17.34;46.47;95103.94;5088025;28;20036;-75
2023/05/05 09:46:31;;;;;;;4.05;2.80;;;;;;;17.11;47.41;95095.88;5071489;28;20077;-76
2023/05/05 09:49:12;;;;;;;4.53;3.03;;;;;;;16.98;46.96;95096.31;5087843;28;20031;-75
2023/05/05 09:51:37;;;;;;;4.65;2.58;;;;;;;16.82;46.58;95097.06;5066475;28;20353;-73
2023/05/05 09:54:03;;;;;;;3.90;2.28;;;;;;;16.73;46.29;95079.63;5070256;28;20028;-76
2023/05/05 09:56:40;;;;;;;3.53;2.40;;;;;;;16.68;46.66;95090.59;5067236;28;20040;-75
2023/05/05 09:59:09;;;;;;;3.72;2.70;;;;;;;16.65;47.80;95085.66;5080423;28;20035;-75
2023/05/05 10:01:34;;;;;;;4.50;2.92;;;;;;;16.75;47.66;95094.22;5073678;28;20031;-75
2023/05/05 10:04:00;;;;;;;5.60;2.90;;;;;;;16.71;48.11;95086.81;5038548;28;20041;-75
2023/05/05 10:06:46;;;;;;;4.32;3.08;;;;;;;16.78;47.46;95097.56;5065113;28;20392;-74
2023/05/05 10:09:12;;;;;;;4.68;2.70;;;;;;;16.68;46.72;95092.38;5067882;28;20025;-75
2023/05/05 10:11:39;;;;;;;4.90;2.42;;;;;;;16.68;46.30;95095.84;5067680;28;20244;-75
2023/05/05 10:14:05;;;;;;;3.33;2.35;;;;;;;16.64;46.29;95085.84;5049186;28;20024;-74
2023/05/05 10:16:30;;;;;;;3.22;2.25;;;;;;;16.66;46.22;95081.22;5049216;28;20036;-75
2023/05/05 10:18:56;;;;;;;6.13;2.53;;;;;;;16.58;46.73;95066.31;5034806;28;20024;-76
2023/05/05 10:21:23;;;;;;;4.00;3.17;;;;;;;16.60;47.01;95092.34;5052991;28;20039;-75
2023/05/05 10:23:56;;;;;;;4.10;2.53;;;;;;;16.60;47.59;95076.63;5053945;28;20039;-76
2023/05/05 10:26:22;;;;;;;3.50;2.53;;;;;;;16.75;45.75;95085.56;5033255;28;20127;-74
2023/05/05 10:28:54;;;;;;;3.70;2.50;;;;;;;16.67;46.08;95072.41;5033294;28;20086;-74
2023/05/05 10:31:22;;;;;;;4.30;2.60;;;;;;;16.79;46.23;95071.16;5035931;28;20032;-76
2023/05/05 10:34:02;;;;;;;5.05;2.90;;;;;;;16.54;47.25;95042.19;5051128;28;20155;-74
2023/05/05 10:36:28;;;;;;;9.02;2.97;;;;;;;16.50;47.70;95076.75;5048359;28;20044;-73
2023/05/05 10:38:55;;;;;;;4.43;2.72;;;;;;;16.64;48.99;95072.72;5067124;28;20032;-74
2023/05/05 10:41:21;;;;;;;3.67;2.47;;;;;;;16.77;47.42;95075.75;5049967;28;20033;-74
2023/05/05 10:43:46;;;;;;;6.97;3.10;;;;;;;16.41;48.76;95073.28;5063441;28;20028;-74
2023/05/05 10:46:12;;;;;;;4.15;2.65;;;;;;;16.56;47.40;95075.31;5067065;28;20040;-74
2023/05/05 10:48:43;;;;;;;2.63;1.98;;;;;;;16.75;47.03;95070.63;5067830;28;20062;-74
2023/05/05 10:51:12;;;;;;;2.97;2.20;;;;;;;16.88;46.62;95064.97;5069668;28;20059;-74
2023/05/05 10:53:44;;;;;;;3.60;2.60;;;;;;;16.91;47.93;95066.44;5068989;28;20145;-74
2023/05/05 10:56:16;;;;;;;3.65;2.80;;;;;;;17.02;46.32;95071.41;5050589;28;20041;-74
2023/05/05 10:58:42;;;;;;;3.70;2.60;;;;;;;17.15;46.41;95068.31;5067473;28;20028;-74
2023/05/05 11:01:08;;;;;;;3.70;2.50;;;;;;;17.35;46.34;95071.44;5068571;28;20028;-74
2023/05/05 11:03:33;;;;;;;3.60;2.30;;;;;;;17.17;45.48;95061.09;5067498;28;20075;-74
2023/05/05 11:06:06;;;;;;;3.85;2.50;;;;;;;17.09;46.13;95074.19;5054560;28;20521;-74
2023/05/05 11:08:41;;;;;;;3.42;2.67;;;;;;;17.00;45.74;95067.28;5068736;28;20056;-74
2023/05/05 11:11:09;;;;;;;7.03;4.70;;;;;;;17.05;46.68;95057.97;5051209;28;20387;-74
2023/05/05 11:13:35;;;;;;;4.88;2.60;;;;;;;17.16;45.57;95054.19;5051458;28;20021;-74
2023/05/05 11:16:03;;;;;;;3.58;2.40;;;;;;;17.19;45.43;95048.63;5086150;28;20549;-74
2023/05/05 11:18:35;;;;;;;4.00;2.83;;;;;;;17.35;46.02;95055.69;5069483;28;20111;-74
2023/05/05 11:21:00;;;;;;;3.00;2.08;;;;;;;17.49;45.11;95059.47;5085411;28;20190;-74
2023/05/05 11:23:26;;;;;;;3.83;2.05;;;;;;;17.47;44.46;95053.56;5070383;28;20585;-74
2023/05/05 11:25:52;;;;;;;2.70;1.90;;;;;;;17.26;44.43;95056.69;5086130;28;20032;-74
2023/05/05 11:28:24;;;;;;;2.92;2.15;;;;;;;16.73;45.64;95058.66;5036137;28;20028;-74
2023/05/05 11:31:16;;;;;;;3.25;2.20;;;;;;;17.05;45.45;95054.50;5036606;28;20028;-74
2023/05/05 11:33:41;;;;;;;3.20;2.20;;;;;;;16.67;46.24;95035.69;5038975;28;20045;-74
2023/05/05 11:36:08;;;;;;;4.35;2.13;;;;;;;16.90;46.38;95047.25;5050479;28;20033;-74